sensor_id;sensor_type;location;lat;lon;timestamp;pressure;altitude;pressure_sealevel;temperature;humidity
51807;BME280;37865;51.304;9.536;2023-07-29T00:01:31;99252.16;;;19.02;100.00
51807;BME280;37865;51.304;9.536;2023-07-29T00:03:56;99258.34;;;19.07;100.00
51807;BME280;37865;51.304;9.536;2023-07-29T00:06:21;99255.75;;;19.11;100.00
51807;BME280;37865;51.304;9.536;2023-07-29T00:08:47;99249.56;;;19.14;100.00
51807;BME280;37865;51.304;9.536;2023-07-29T00:11:12;99242.59;;;19.16;100.00
51807;BME280;37865;51.304;9.536;2023-07-29T00:13:37;99241.97;;;19.19;100.00
51807;BME280;37865;51.304;9.536;2023-07-29T00:16:02;99243.22;;;19.22;100.00
51807;BME280;37865;51.304;9.536;2023-07-29T00:18:28;99244.53;;;19.24;100.00
51807;BME280;37865;51.304;9.536;2023-07-29T00:20:53;99242.25;;;19.26;100.00
51807;BME280;37865;51.304;9.536;2023-07-29T00:23:18;99238.03;;;19.29;100.00
51807;BME280;37865;51.304;9.536;2023-07-29T00:25:44;99236.59;;;19.32;100.00
51807;BME280;37865;51.304;9.536;2023-07-29T00:28:09;99242.63;;;19.34;100.00
51807;BME280;37865;51.304;9.536;2023-07-29T00:30:35;99239.53;;;19.35;100.00
51807;BME280;37865;51.304;9.536;2023-07-29T00:33:00;99245.22;;;19.39;100.00
51807;BME280;37865;51.304;9.536;2023-07-29T00:35:25;99248.00;;;19.39;100.00
51807;BME280;37865;51.304;9.536;2023-07-29T00:37:51;99240.84;;;19.38;100.00
51807;BME280;37865;51.304;9.536;2023-07-29T00:40:21;99245.56;;;19.37;100.00
51807;BME280;37865;51.304;9.536;2023-07-29T00:42:46;99234.50;;;19.37;100.00
51807;BME280;37865;51.304;9.536;2023-07-29T00:45:12;99227.03;;;19.38;100.00
51807;BME280;37865;51.304;9.536;2023-07-29T00:47:38;99225.88;;;19.39;100.00
51807;BME280;37865;51.304;9.536;2023-07-29T00:50:04;99231.72;;;19.37;100.00
51807;BME280;37865;51.304;9.536;2023-07-29T00:52:29;99225.09;;;19.38;100.00
51807;BME280;37865;51.304;9.536;2023-07-29T00:54:55;99227.50;;;19.40;100.00
51807;BME280;37865;51.304;9.536;2023-07-29T00:57:20;99212.88;;;19.39;100.00
51807;BME280;37865;51.304;9.536;2023-07-29T00:59:46;99216.44;;;19.40;100.00
51807;BME280;37865;51.304;9.536;2023-07-29T01:02:12;99215.63;;;19.39;100.00
51807;BME280;37865;51.304;9.536;2023-07-29T01:04:37;99215.63;;;19.39;100.00
51807;BME280;37865;51.304;9.536;2023-07-29T01:07:21;99217.56;;;19.39;100.00
51807;BME280;37865;51.304;9.536;2023-07-29T01:12:19;99218.41;;;19.39;100.00
51807;BME280;37865;51.304;9.536;2023-07-29T01:17:46;99208.00;;;19.36;100.00
51807;BME280;37865;51.304;9.536;2023-07-29T01:20:15;99206.38;;;19.35;100.00
51807;BME280;37865;51.304;9.536;2023-07-29T01:22:41;99200.31;;;19.33;100.00
51807;BME280;37865;51.304;9.536;2023-07-29T01:25:07;99192.88;;;19.34;100.00
51807;BME280;37865;51.304;9.536;2023-07-29T01:27:33;99196.94;;;19.36;100.00
51807;BME280;37865;51.304;9.536;2023-07-29T01:29:58;99196.94;;;19.36;100.00
51807;BME280;37865;51.304;9.536;2023-07-29T01:32:51;99203.25;;;19.37;100.00
51807;BME280;37865;51.304;9.536;2023-07-29T01:35:27;99214.31;;;19.37;100.00
51807;BME280;37865;51.304;9.536;2023-07-29T01:38:03;99221.00;;;19.36;100.00
51807;BME280;37865;51.304;9.536;2023-07-29T01:40:30;99222.94;;;19.35;100.00
51807;BME280;37865;51.304;9.536;2023-07-29T01:42:56;99218.56;;;19.34;100.00
51807;BME280;37865;51.304;9.536;2023-07-29T01:45:24;99216.59;;;19.35;100.00
51807;BME280;37865;51.304;9.536;2023-07-29T01:47:53;99211.38;;;19.33;100.00
51807;BME280;37865;51.304;9.536;2023-07-29T01:50:18;99217.25;;;19.32;100.00
51807;BME280;37865;51.304;9.536;2023-07-29T01:52:44;99224.38;;;19.33;100.00
51807;BME280;37865;51.304;9.536;2023-07-29T01:55:09;99219.19;;;19.31;100.00
51807;BME280;37865;51.304;9.536;2023-07-29T01:57:34;99216.75;;;19.30;100.00
51807;BME280;37865;51.304;9.536;2023-07-29T02:00:00;99222.44;;;19.33;100.00
51807;BME280;37865;51.304;9.536;2023-07-29T02:02:25;99222.75;;;19.32;100.00
51807;BME280;37865;51.304;9.536;2023-07-29T02:04:50;99215.28;;;19.32;100.00
51807;BME280;37865;51.304;9.536;2023-07-29T02:07:18;99212.22;;;19.34;100.00
51807;BME280;37865;51.304;9.536;2023-07-29T02:09:44;99216.78;;;19.38;100.00
51807;BME280;37865;51.304;9.536;2023-07-29T02:12:09;99212.88;;;19.39;100.00
51807;BME280;37865;51.304;9.536;2023-07-29T02:14:35;99210.09;;;19.39;100.00
51807;BME280;37865;51.304;9.536;2023-07-29T02:17:00;99208.16;;;19.40;100.00
51807;BME280;37865;51.304;9.536;2023-07-29T02:19:25;99205.88;;;19.42;100.00
51807;BME280;37865;51.304;9.536;2023-07-29T02:21:51;99200.84;;;19.44;100.00
51807;BME280;37865;51.304;9.536;2023-07-29T02:24:16;99201.31;;;19.46;100.00
51807;BME280;37865;51.304;9.536;2023-07-29T02:26:41;99192.19;;;19.45;100.00
51807;BME280;37865;51.304;9.536;2023-07-29T02:29:07;99183.09;;;19.45;100.00
51807;BME280;37865;51.304;9.536;2023-07-29T02:31:32;99187.00;;;19.44;100.00
51807;BME280;37865;51.304;9.536;2023-07-29T02:33:57;99181.81;;;19.42;100.00
51807;BME280;37865;51.304;9.536;2023-07-29T02:36:23;99187.16;;;19.39;100.00
51807;BME280;37865;51.304;9.536;2023-07-29T02:38:48;99181.16;;;19.37;100.00
51807;BME280;37865;51.304;9.536;2023-07-29T02:41:14;99180.84;;;19.38;100.00
51807;BME280;37865;51.304;9.536;2023-07-29T02:43:42;99181.16;;;19.37;100.00
51807;BME280;37865;51.304;9.536;2023-07-29T02:46:07;99172.53;;;19.38;100.00
51807;BME280;37865;51.304;9.536;2023-07-29T02:48:32;99173.66;;;19.37;100.00
51807;BME280;37865;51.304;9.536;2023-07-29T02:50:58;99172.53;;;19.38;100.00
51807;BME280;37865;51.304;9.536;2023-07-29T02:53:23;99175.78;;;19.40;100.00
51807;BME280;37865;51.304;9.536;2023-07-29T02:55:48;99171.88;;;19.41;100.00
51807;BME280;37865;51.304;9.536;2023-07-29T02:58:14;99158.88;;;19.42;100.00
51807;BME280;37865;51.304;9.536;2023-07-29T03:00:39;99158.88;;;19.42;100.00
51807;BME280;37865;51.304;9.536;2023-07-29T03:03:07;99158.06;;;19.41;100.00
51807;BME280;37865;51.304;9.536;2023-07-29T03:05:33;99148.63;;;19.42;100.00
51807;BME280;37865;51.304;9.536;2023-07-29T03:07:58;99143.09;;;19.42;100.00
51807;BME280;37865;51.304;9.536;2023-07-29T03:10:23;99139.53;;;19.42;100.00
51807;BME280;37865;51.304;9.536;2023-07-29T03:12:49;99137.56;;;19.42;100.00
51807;BME280;37865;51.304;9.536;2023-07-29T03:15:14;99133.16;;;19.41;100.00
51807;BME280;37865;51.304;9.536;2023-07-29T03:17:39;99134.31;;;19.40;100.00
51807;BME280;37865;51.304;9.536;2023-07-29T03:20:05;99131.56;;;19.40;100.00
51807;BME280;37865;51.304;9.536;2023-07-29T03:22:31;99127.63;;;19.41;100.00
51807;BME280;37865;51.304;9.536;2023-07-29T03:24:56;99128.78;;;19.40;100.00
51807;BME280;37865;51.304;9.536;2023-07-29T03:27:21;99134.31;;;19.40;100.00
51807;BME280;37865;51.304;9.536;2023-07-29T03:29:47;99137.88;;;19.41;100.00
51807;BME280;37865;51.304;9.536;2023-07-29T03:32:12;99130.06;;;19.43;100.00
51807;BME280;37865;51.304;9.536;2023-07-29T03:34:38;99125.03;;;19.45;100.00
51807;BME280;37865;51.304;9.536;2023-07-29T03:37:05;99122.75;;;19.47;100.00
51807;BME280;37865;51.304;9.536;2023-07-29T03:39:31;99120.50;;;19.49;100.00
51807;BME280;37865;51.304;9.536;2023-07-29T03:41:56;99123.41;;;19.52;100.00
51807;BME280;37865;51.304;9.536;2023-07-29T03:44:22;99124.22;;;19.53;100.00
51807;BME280;37865;51.304;9.536;2023-07-29T03:46:47;99116.56;;;19.50;100.00
51807;BME280;37865;51.304;9.536;2023-07-29T03:49:12;99114.78;;;19.45;100.00
51807;BME280;37865;51.304;9.536;2023-07-29T03:51:38;99112.22;;;19.40;100.00
51807;BME280;37865;51.304;9.536;2023-07-29T03:54:03;99116.91;;;19.31;100.00
51807;BME280;37865;51.304;9.536;2023-07-29T03:56:28;99116.56;;;19.24;100.00
51807;BME280;37865;51.304;9.536;2023-07-29T03:59:02;99117.56;;;19.19;100.00
51807;BME280;37865;51.304;9.536;2023-07-29T04:01:28;99120.84;;;19.13;100.00
51807;BME280;37865;51.304;9.536;2023-07-29T04:03:53;99115.59;;;19.11;100.00
51807;BME280;37865;51.304;9.536;2023-07-29T04:06:19;99119.84;;;19.09;100.00
51807;BME280;37865;51.304;9.536;2023-07-29T04:08:45;99121.81;;;19.08;100.00
51807;BME280;37865;51.304;9.536;2023-07-29T04:11:10;99112.22;;;19.06;100.00
51807;BME280;37865;51.304;9.536;2023-07-29T04:13:35;99100.81;;;19.07;100.00
51807;BME280;37865;51.304;9.536;2023-07-29T04:16:03;99105.06;;;19.05;100.00
51807;BME280;37865;51.304;9.536;2023-07-29T04:18:28;99112.38;;;19.01;100.00
51807;BME280;37865;51.304;9.536;2023-07-29T04:20:54;99110.75;;;19.00;100.00
51807;BME280;37865;51.304;9.536;2023-07-29T04:23:19;99102.78;;;18.98;100.00
51807;BME280;37865;51.304;9.536;2023-07-29T04:25:44;99115.47;;;18.99;100.00
51807;BME280;37865;51.304;9.536;2023-07-29T04:28:09;99111.56;;;19.00;100.00
51807;BME280;37865;51.304;9.536;2023-07-29T04:30:35;99108.81;;;19.00;100.00
51807;BME280;37865;51.304;9.536;2023-07-29T04:33:00;99106.53;;;19.02;100.00
51807;BME280;37865;51.304;9.536;2023-07-29T04:35:25;99107.00;;;19.04;100.00
51807;BME280;37865;51.304;9.536;2023-07-29T04:37:51;99097.09;;;19.03;100.00
51807;BME280;37865;51.304;9.536;2023-07-29T04:40:16;99101.16;;;19.06;100.00
51807;BME280;37865;51.304;9.536;2023-07-29T04:42:41;99098.06;;;19.07;100.00
51807;BME280;37865;51.304;9.536;2023-07-29T04:45:07;99099.69;;;19.08;100.00
51807;BME280;37865;51.304;9.536;2023-07-29T04:47:32;99092.84;;;19.14;100.00
51807;BME280;37865;51.304;9.536;2023-07-29T04:49:57;99100.50;;;19.17;100.00
51807;BME280;37865;51.304;9.536;2023-07-29T04:52:22;99109.44;;;19.23;100.00
51807;BME280;37865;51.304;9.536;2023-07-29T04:54:48;99094.94;;;19.26;100.00
51807;BME280;37865;51.304;9.536;2023-07-29T04:57:13;99097.06;;;19.29;100.00
51807;BME280;37865;51.304;9.536;2023-07-29T04:59:38;99090.59;;;19.34;100.00
51807;BME280;37865;51.304;9.536;2023-07-29T05:02:04;99100.31;;;19.40;100.00
51807;BME280;37865;51.304;9.536;2023-07-29T05:04:29;99091.34;;;19.43;100.00
51807;BME280;37865;51.304;9.536;2023-07-29T05:06:54;99096.25;;;19.46;100.00
51807;BME280;37865;51.304;9.536;2023-07-29T05:09:20;99093.63;;;19.49;100.00
51807;BME280;37865;51.304;9.536;2023-07-29T05:11:46;99092.63;;;19.54;100.00
51807;BME280;37865;51.304;9.536;2023-07-29T05:14:13;99092.47;;;19.59;100.00
51807;BME280;37865;51.304;9.536;2023-07-29T05:16:38;99091.47;;;19.63;100.00
51807;BME280;37865;51.304;9.536;2023-07-29T05:19:03;99088.03;;;19.66;100.00
51807;BME280;37865;51.304;9.536;2023-07-29T05:21:29;99096.00;;;19.68;100.00
51807;BME280;37865;51.304;9.536;2023-07-29T05:23:55;99092.94;;;19.69;100.00
51807;BME280;37865;51.304;9.536;2023-07-29T05:26:20;99088.53;;;19.68;100.00
51807;BME280;37865;51.304;9.536;2023-07-29T05:28:45;99082.50;;;19.66;100.00
51807;BME280;37865;51.304;9.536;2023-07-29T05:31:11;99070.81;;;19.69;100.00
51807;BME280;37865;51.304;9.536;2023-07-29T05:33:36;99071.75;;;19.73;100.00
51807;BME280;37865;51.304;9.536;2023-07-29T05:36:02;99081.31;;;19.76;100.00
51807;BME280;37865;51.304;9.536;2023-07-29T05:38:27;99074.50;;;19.82;100.00
51807;BME280;37865;51.304;9.536;2023-07-29T05:40:53;99084.53;;;19.86;100.00
51807;BME280;37865;51.304;9.536;2023-07-29T05:43:18;99081.94;;;19.90;100.00
51807;BME280;37865;51.304;9.536;2023-07-29T05:45:43;99078.50;;;19.93;100.00
51807;BME280;37865;51.304;9.536;2023-07-29T05:48:08;99075.22;;;19.99;100.00
51807;BME280;37865;51.304;9.536;2023-07-29T05:50:34;99080.22;;;20.06;100.00
51807;BME280;37865;51.304;9.536;2023-07-29T05:52:59;99079.03;;;20.16;100.00
51807;BME280;37865;51.304;9.536;2023-07-29T05:55:25;99078.53;;;20.22;100.00
51807;BME280;37865;51.304;9.536;2023-07-29T05:57:50;99081.13;;;20.27;100.00
51807;BME280;37865;51.304;9.536;2023-07-29T06:00:15;99075.38;;;20.32;100.00
51807;BME280;37865;51.304;9.536;2023-07-29T06:02:40;99076.47;;;20.40;100.00
51807;BME280;37865;51.304;9.536;2023-07-29T06:05:06;99066.97;;;20.49;100.00
51807;BME280;37865;51.304;9.536;2023-07-29T06:07:32;99073.97;;;20.47;100.00
51807;BME280;37865;51.304;9.536;2023-07-29T06:09:59;99080.81;;;20.49;100.00
51807;BME280;37865;51.304;9.536;2023-07-29T06:12:24;99081.97;;;20.48;100.00
51807;BME280;37865;51.304;9.536;2023-07-29T06:14:49;99091.94;;;20.41;100.00
51807;BME280;37865;51.304;9.536;2023-07-29T06:17:14;99086.41;;;20.41;100.00
51807;BME280;37865;51.304;9.536;2023-07-29T06:19:40;99087.69;;;20.43;100.00
51807;BME280;37865;51.304;9.536;2023-07-29T06:22:05;99090.28;;;20.48;100.00
51807;BME280;37865;51.304;9.536;2023-07-29T06:24:31;99094.13;;;20.56;100.00
51807;BME280;37865;51.304;9.536;2023-07-29T06:26:56;99096.50;;;20.66;100.00
51807;BME280;37865;51.304;9.536;2023-07-29T06:29:21;99092.66;;;20.79;100.00
51807;BME280;37865;51.304;9.536;2023-07-29T06:31:47;99078.78;;;21.00;100.00
51807;BME280;37865;51.304;9.536;2023-07-29T06:34:12;99087.44;;;21.19;98.94
51807;BME280;37865;51.304;9.536;2023-07-29T06:36:37;99090.16;;;21.39;98.26
51807;BME280;37865;51.304;9.536;2023-07-29T06:39:03;99088.09;;;21.48;96.97
51807;BME280;37865;51.304;9.536;2023-07-29T06:41:28;99096.56;;;21.52;96.06
51807;BME280;37865;51.304;9.536;2023-07-29T06:43:53;99099.06;;;21.45;95.95
51807;BME280;37865;51.304;9.536;2023-07-29T06:46:18;99093.88;;;21.43;96.08
51807;BME280;37865;51.304;9.536;2023-07-29T06:48:44;99097.88;;;21.34;95.64
51807;BME280;37865;51.304;9.536;2023-07-29T06:51:09;99110.41;;;21.19;96.57
51807;BME280;37865;51.304;9.536;2023-07-29T06:53:34;99097.91;;;21.13;97.19
51807;BME280;37865;51.304;9.536;2023-07-29T06:56:00;99099.44;;;21.11;97.34
51807;BME280;37865;51.304;9.536;2023-07-29T06:58:25;99092.44;;;21.05;97.55
51807;BME280;37865;51.304;9.536;2023-07-29T07:00:51;99103.44;;;20.93;97.95
51807;BME280;37865;51.304;9.536;2023-07-29T07:03:16;99093.38;;;20.88;98.61
51807;BME280;37865;51.304;9.536;2023-07-29T07:05:41;99107.09;;;20.84;98.95
51807;BME280;37865;51.304;9.536;2023-07-29T07:08:06;99102.56;;;20.80;99.25
51807;BME280;37865;51.304;9.536;2023-07-29T07:10:32;99087.66;;;20.72;99.98
51807;BME280;37865;51.304;9.536;2023-07-29T07:12:59;99091.63;;;20.63;100.00
51807;BME280;37865;51.304;9.536;2023-07-29T07:15:24;99106.69;;;20.53;100.00
51807;BME280;37865;51.304;9.536;2023-07-29T07:17:50;99099.84;;;20.51;100.00
51807;BME280;37865;51.304;9.536;2023-07-29T07:20:16;99105.53;;;20.54;100.00
51807;BME280;37865;51.304;9.536;2023-07-29T07:22:41;99102.25;;;20.61;100.00
51807;BME280;37865;51.304;9.536;2023-07-29T07:25:07;99094.06;;;20.64;100.00
51807;BME280;37865;51.304;9.536;2023-07-29T07:27:32;99098.13;;;20.67;100.00
51807;BME280;37865;51.304;9.536;2023-07-29T07:29:58;99102.63;;;20.71;100.00
51807;BME280;37865;51.304;9.536;2023-07-29T07:32:23;99096.78;;;20.73;100.00
51807;BME280;37865;51.304;9.536;2023-07-29T07:34:48;99106.84;;;20.77;100.00
51807;BME280;37865;51.304;9.536;2023-07-29T07:37:14;99116.59;;;20.83;100.00
51807;BME280;37865;51.304;9.536;2023-07-29T07:39:39;99121.09;;;20.88;100.00
51807;BME280;37865;51.304;9.536;2023-07-29T07:42:05;99111.97;;;20.88;100.00
51807;BME280;37865;51.304;9.536;2023-07-29T07:44:30;99114.06;;;20.91;100.00
51807;BME280;37865;51.304;9.536;2023-07-29T07:46:56;99110.94;;;20.92;100.00
51807;BME280;37865;51.304;9.536;2023-07-29T07:49:22;99120.28;;;20.88;100.00
51807;BME280;37865;51.304;9.536;2023-07-29T07:51:47;99114.41;;;20.89;100.00
51807;BME280;37865;51.304;9.536;2023-07-29T07:54:12;99117.47;;;20.96;100.00
51807;BME280;37865;51.304;9.536;2023-07-29T07:56:37;99109.41;;;21.03;99.90
51807;BME280;37865;51.304;9.536;2023-07-29T07:59:03;99096.97;;;21.09;99.81
51807;BME280;37865;51.304;9.536;2023-07-29T08:01:37;99096.66;;;21.11;99.23
51807;BME280;37865;51.304;9.536;2023-07-29T08:04:03;99114.78;;;21.08;99.08
51807;BME280;37865;51.304;9.536;2023-07-29T08:06:29;99110.16;;;21.12;98.55
51807;BME280;37865;51.304;9.536;2023-07-29T08:08:55;99123.00;;;21.17;98.19
51807;BME280;37865;51.304;9.536;2023-07-29T08:11:20;99111.84;;;21.25;97.81
51807;BME280;37865;51.304;9.536;2023-07-29T08:13:46;99096.84;;;21.38;97.73
51807;BME280;37865;51.304;9.536;2023-07-29T08:16:12;99097.81;;;21.54;96.38
51807;BME280;37865;51.304;9.536;2023-07-29T08:18:37;99096.69;;;21.68;95.76
51807;BME280;37865;51.304;9.536;2023-07-29T08:21:03;99091.72;;;21.73;94.37
51807;BME280;37865;51.304;9.536;2023-07-29T08:23:29;99104.03;;;21.84;93.52
51807;BME280;37865;51.304;9.536;2023-07-29T08:25:56;99107.53;;;21.93;92.64
51807;BME280;37865;51.304;9.536;2023-07-29T08:28:27;99095.81;;;21.88;91.93
51807;BME280;37865;51.304;9.536;2023-07-29T08:30:52;99107.16;;;21.83;91.18
51807;BME280;37865;51.304;9.536;2023-07-29T08:33:17;99107.50;;;21.81;91.51
51807;BME280;37865;51.304;9.536;2023-07-29T08:35:43;99108.44;;;21.85;91.00
51807;BME280;37865;51.304;9.536;2023-07-29T08:38:08;99110.41;;;21.97;91.27
51807;BME280;37865;51.304;9.536;2023-07-29T08:40:35;99112.06;;;22.10;90.72
51807;BME280;37865;51.304;9.536;2023-07-29T08:43:06;99111.50;;;22.16;90.02
51807;BME280;37865;51.304;9.536;2023-07-29T08:45:35;99119.47;;;22.06;89.89
51807;BME280;37865;51.304;9.536;2023-07-29T08:48:03;99132.06;;;21.91;90.78
51807;BME280;37865;51.304;9.536;2023-07-29T08:50:33;99123.00;;;21.82;90.95
51807;BME280;37865;51.304;9.536;2023-07-29T08:53:00;99127.22;;;21.68;91.62
51807;BME280;37865;51.304;9.536;2023-07-29T08:55:27;99125.63;;;21.67;92.45
51807;BME280;37865;51.304;9.536;2023-07-29T08:57:53;99116.94;;;21.68;92.24
51807;BME280;37865;51.304;9.536;2023-07-29T09:00:19;99126.75;;;21.66;91.97
51807;BME280;37865;51.304;9.536;2023-07-29T09:02:45;99131.41;;;21.74;91.87
51807;BME280;37865;51.304;9.536;2023-07-29T09:05:10;99122.78;;;21.87;91.60
51807;BME280;37865;51.304;9.536;2023-07-29T09:07:36;99123.06;;;22.06;91.21
51807;BME280;37865;51.304;9.536;2023-07-29T09:10:02;99116.44;;;22.47;89.61
51807;BME280;37865;51.304;9.536;2023-07-29T09:12:27;99125.00;;;22.54;87.33
51807;BME280;37865;51.304;9.536;2023-07-29T09:14:53;99120.25;;;22.55;87.17
51807;BME280;37865;51.304;9.536;2023-07-29T09:17:19;99123.84;;;22.55;87.57
51807;BME280;37865;51.304;9.536;2023-07-29T09:19:50;99116.69;;;22.66;87.13
51807;BME280;37865;51.304;9.536;2023-07-29T09:22:22;99105.03;;;22.88;85.87
51807;BME280;37865;51.304;9.536;2023-07-29T09:24:47;99111.53;;;23.32;84.46
51807;BME280;37865;51.304;9.536;2023-07-29T09:27:28;99094.56;;;23.80;81.23
51807;BME280;37865;51.304;9.536;2023-07-29T09:29:57;99098.78;;;24.21;78.45
51807;BME280;37865;51.304;9.536;2023-07-29T09:32:23;99101.66;;;24.40;76.98
51807;BME280;37865;51.304;9.536;2023-07-29T09:34:49;99099.25;;;24.58;74.68
51807;BME280;37865;51.304;9.536;2023-07-29T09:37:16;99105.34;;;24.44;73.64
51807;BME280;37865;51.304;9.536;2023-07-29T09:39:46;99107.13;;;24.52;73.32
51807;BME280;37865;51.304;9.536;2023-07-29T09:42:17;99103.44;;;24.48;73.67
51807;BME280;37865;51.304;9.536;2023-07-29T09:44:43;99105.28;;;24.60;73.58
51807;BME280;37865;51.304;9.536;2023-07-29T09:47:08;99106.72;;;24.69;72.70
51807;BME280;37865;51.304;9.536;2023-07-29T09:49:36;99108.44;;;24.58;71.82
51807;BME280;37865;51.304;9.536;2023-07-29T09:52:02;99105.59;;;24.55;70.42
51807;BME280;37865;51.304;9.536;2023-07-29T09:54:30;99101.78;;;24.63;68.15
51807;BME280;37865;51.304;9.536;2023-07-29T09:56:56;99099.00;;;24.63;67.75
51807;BME280;37865;51.304;9.536;2023-07-29T09:59:23;99099.59;;;24.72;68.68
51807;BME280;37865;51.304;9.536;2023-07-29T10:01:49;99099.94;;;24.86;66.33
51807;BME280;37865;51.304;9.536;2023-07-29T10:04:14;99091.59;;;24.86;65.63
51807;BME280;37865;51.304;9.536;2023-07-29T10:06:41;99095.53;;;24.85;66.90
51807;BME280;37865;51.304;9.536;2023-07-29T10:09:07;99103.56;;;24.87;67.61
51807;BME280;37865;51.304;9.536;2023-07-29T10:11:33;99098.03;;;24.90;68.16
51807;BME280;37865;51.304;9.536;2023-07-29T10:14:00;99095.34;;;25.32;67.54
51807;BME280;37865;51.304;9.536;2023-07-29T10:16:26;99098.38;;;25.42;66.54
51807;BME280;37865;51.304;9.536;2023-07-29T10:18:53;99088.56;;;25.33;65.21
51807;BME280;37865;51.304;9.536;2023-07-29T10:21:19;99087.91;;;25.39;65.02
51807;BME280;37865;51.304;9.536;2023-07-29T10:23:47;99098.78;;;25.64;63.71
51807;BME280;37865;51.304;9.536;2023-07-29T10:26:16;99101.19;;;25.65;60.43
51807;BME280;37865;51.304;9.536;2023-07-29T10:28:47;99084.44;;;25.65;58.07
51807;BME280;37865;51.304;9.536;2023-07-29T10:31:15;99077.38;;;25.71;55.69
51807;BME280;37865;51.304;9.536;2023-07-29T10:33:42;99085.38;;;25.95;54.83
51807;BME280;37865;51.304;9.536;2023-07-29T10:36:09;99095.13;;;26.27;54.22
51807;BME280;37865;51.304;9.536;2023-07-29T10:38:34;99076.25;;;26.21;54.16
51807;BME280;37865;51.304;9.536;2023-07-29T10:41:00;99084.03;;;26.08;54.91
51807;BME280;37865;51.304;9.536;2023-07-29T10:45:57;99072.06;;;25.89;55.43
51807;BME280;37865;51.304;9.536;2023-07-29T10:51:34;99072.78;;;26.80;54.45
51807;BME280;37865;51.304;9.536;2023-07-29T10:54:13;99066.72;;;27.07;51.80
51807;BME280;37865;51.304;9.536;2023-07-29T10:56:41;99064.81;;;26.82;51.25
51807;BME280;37865;51.304;9.536;2023-07-29T11:01:43;99065.31;;;26.61;51.57
51807;BME280;37865;51.304;9.536;2023-07-29T11:12:50;99067.91;;;26.73;49.80
51807;BME280;37865;51.304;9.536;2023-07-29T11:15:23;99062.53;;;26.91;49.85
51807;BME280;37865;51.304;9.536;2023-07-29T11:17:59;99068.09;;;27.21;49.70
51807;BME280;37865;51.304;9.536;2023-07-29T11:20:28;99058.16;;;27.27;48.47
51807;BME280;37865;51.304;9.536;2023-07-29T11:22:55;99057.91;;;27.35;48.49
51807;BME280;37865;51.304;9.536;2023-07-29T11:25:22;99065.63;;;27.49;47.69
51807;BME280;37865;51.304;9.536;2023-07-29T11:27:47;99058.72;;;27.36;46.44
51807;BME280;37865;51.304;9.536;2023-07-29T11:30:14;99067.41;;;27.31;46.48
51807;BME280;37865;51.304;9.536;2023-07-29T11:32:41;99071.09;;;27.35;46.69
51807;BME280;37865;51.304;9.536;2023-07-29T11:35:09;99067.97;;;27.40;46.75
51807;BME280;37865;51.304;9.536;2023-07-29T11:37:36;99073.94;;;27.78;45.89
51807;BME280;37865;51.304;9.536;2023-07-29T11:40:02;99088.66;;;27.68;45.60
51807;BME280;37865;51.304;9.536;2023-07-29T11:42:28;99065.56;;;27.42;45.83
51807;BME280;37865;51.304;9.536;2023-07-29T11:44:56;99070.47;;;27.52;45.97
51807;BME280;37865;51.304;9.536;2023-07-29T11:47:22;99069.78;;;27.62;45.71
51807;BME280;37865;51.304;9.536;2023-07-29T11:49:47;99067.66;;;27.48;46.01
51807;BME280;37865;51.304;9.536;2023-07-29T11:52:13;99072.56;;;27.25;46.39
51807;BME280;37865;51.304;9.536;2023-07-29T11:54:39;99090.19;;;26.96;47.12
51807;BME280;37865;51.304;9.536;2023-07-29T11:57:08;99072.78;;;26.80;46.45
51807;BME280;37865;51.304;9.536;2023-07-29T11:59:37;99075.22;;;26.85;46.56
51807;BME280;37865;51.304;9.536;2023-07-29T12:02:10;99079.50;;;27.05;46.70
51807;BME280;37865;51.304;9.536;2023-07-29T12:04:37;99083.53;;;27.07;46.20
51807;BME280;37865;51.304;9.536;2023-07-29T12:07:03;99076.78;;;26.82;45.47
51807;BME280;37865;51.304;9.536;2023-07-29T12:09:28;99081.78;;;26.70;46.32
51807;BME280;37865;51.304;9.536;2023-07-29T12:11:54;99072.50;;;26.62;46.22
51807;BME280;37865;51.304;9.536;2023-07-29T12:14:20;99074.59;;;26.69;46.36
51807;BME280;37865;51.304;9.536;2023-07-29T12:16:48;99073.34;;;26.66;46.16
51807;BME280;37865;51.304;9.536;2023-07-29T12:19:14;99075.69;;;26.61;46.03
51807;BME280;37865;51.304;9.536;2023-07-29T12:21:44;99075.50;;;26.50;45.73
51807;BME280;37865;51.304;9.536;2023-07-29T12:24:09;99078.47;;;26.61;45.40
51807;BME280;37865;51.304;9.536;2023-07-29T12:26:37;99081.50;;;26.49;44.54
51807;BME280;37865;51.304;9.536;2023-07-29T12:29:13;99084.16;;;26.15;45.12
51807;BME280;37865;51.304;9.536;2023-07-29T12:31:39;99094.50;;;25.92;45.60
51807;BME280;37865;51.304;9.536;2023-07-29T12:34:04;99095.13;;;25.82;45.80
51807;BME280;37865;51.304;9.536;2023-07-29T12:36:47;99090.56;;;25.74;46.45
51807;BME280;37865;51.304;9.536;2023-07-29T12:39:20;99092.44;;;25.67;46.55
51807;BME280;37865;51.304;9.536;2023-07-29T12:41:46;99097.75;;;25.52;46.96
51807;BME280;37865;51.304;9.536;2023-07-29T12:44:12;99102.09;;;25.50;47.29
51807;BME280;37865;51.304;9.536;2023-07-29T12:46:37;99106.34;;;25.63;47.00
51807;BME280;37865;51.304;9.536;2023-07-29T12:49:02;99097.06;;;25.78;47.27
51807;BME280;37865;51.304;9.536;2023-07-29T12:51:28;99100.63;;;25.79;46.79
51807;BME280;37865;51.304;9.536;2023-07-29T12:53:54;99102.88;;;25.92;47.09
51807;BME280;37865;51.304;9.536;2023-07-29T12:56:19;99103.66;;;26.12;47.12
51807;BME280;37865;51.304;9.536;2023-07-29T12:58:44;99110.25;;;26.04;46.38
51807;BME280;37865;51.304;9.536;2023-07-29T13:01:10;99108.16;;;25.97;47.12
51807;BME280;37865;51.304;9.536;2023-07-29T13:03:38;99106.97;;;25.98;46.60
51807;BME280;37865;51.304;9.536;2023-07-29T13:06:03;99103.88;;;26.03;46.93
51807;BME280;37865;51.304;9.536;2023-07-29T13:08:30;99106.59;;;26.00;46.80
51807;BME280;37865;51.304;9.536;2023-07-29T13:10:55;99100.91;;;25.93;47.66
51807;BME280;37865;51.304;9.536;2023-07-29T13:13:20;99095.47;;;26.03;47.71